sensor_id;sensor_type;location;lat;lon;timestamp;P1;durP1;ratioP1;P2;durP2;ratioP2
16478;SDS011;8350;52.316;10.530;2023-04-10T00:02:20;35.20;;;27.42;;
16478;SDS011;8350;52.316;10.530;2023-04-10T00:04:47;34.72;;;26.17;;
16478;SDS011;8350;52.316;10.530;2023-04-10T00:07:17;32.75;;;26.63;;
16478;SDS011;8350;52.316;10.530;2023-04-10T00:09:44;35.00;;;25.02;;
16478;SDS011;8350;52.316;10.530;2023-04-10T00:12:13;35.00;;;26.45;;
16478;SDS011;8350;52.316;10.530;2023-04-10T00:14:40;33.55;;;26.00;;
16478;SDS011;8350;52.316;10.530;2023-04-10T00:17:10;35.40;;;27.13;;
16478;SDS011;8350;52.316;10.530;2023-04-10T00:19:37;34.13;;;26.83;;
16478;SDS011;8350;52.316;10.530;2023-04-10T00:22:05;33.67;;;25.88;;
16478;SDS011;8350;52.316;10.530;2023-04-10T00:24:34;34.78;;;27.40;;
16478;SDS011;8350;52.316;10.530;2023-04-10T00:27:01;31.42;;;25.30;;
16478;SDS011;8350;52.316;10.530;2023-04-10T00:29:30;31.23;;;24.40;;
16478;SDS011;8350;52.316;10.530;2023-04-10T00:31:57;35.63;;;26.00;;
16478;SDS011;8350;52.316;10.530;2023-04-10T00:34:24;32.08;;;25.73;;
16478;SDS011;8350;52.316;10.530;2023-04-10T00:36:51;32.88;;;25.05;;
16478;SDS011;8350;52.316;10.530;2023-04-10T00:39:18;34.42;;;25.88;;
16478;SDS011;8350;52.316;10.530;2023-04-10T00:41:45;32.10;;;26.13;;
16478;SDS011;8350;52.316;10.530;2023-04-10T00:44:12;31.73;;;26.10;;
16478;SDS011;8350;52.316;10.530;2023-04-10T00:46:40;33.40;;;26.08;;
16478;SDS011;8350;52.316;10.530;2023-04-10T00:49:07;33.55;;;25.15;;
16478;SDS011;8350;52.316;10.530;2023-04-10T00:51:37;32.25;;;25.25;;
16478;SDS011;8350;52.316;10.530;2023-04-10T00:54:07;32.00;;;25.33;;
16478;SDS011;8350;52.316;10.530;2023-04-10T00:56:36;31.50;;;25.02;;
16478;SDS011;8350;52.316;10.530;2023-04-10T00:59:03;28.85;;;23.20;;
16478;SDS011;8350;52.316;10.530;2023-04-10T01:01:30;29.70;;;23.80;;
16478;SDS011;8350;52.316;10.530;2023-04-10T01:04:00;28.83;;;22.88;;
16478;SDS011;8350;52.316;10.530;2023-04-10T01:06:29;29.15;;;23.98;;
16478;SDS011;8350;52.316;10.530;2023-04-10T01:09:09;32.17;;;25.30;;
16478;SDS011;8350;52.316;10.530;2023-04-10T01:11:44;30.70;;;25.25;;
16478;SDS011;8350;52.316;10.530;2023-04-10T01:14:18;32.20;;;23.88;;
16478;SDS011;8350;52.316;10.530;2023-04-10T01:16:55;29.88;;;23.55;;
16478;SDS011;8350;52.316;10.530;2023-04-10T01:19:32;32.38;;;25.05;;
16478;SDS011;8350;52.316;10.530;2023-04-10T01:22:12;31.10;;;23.58;;
16478;SDS011;8350;52.316;10.530;2023-04-10T01:24:46;27.73;;;22.25;;
16478;SDS011;8350;52.316;10.530;2023-04-10T01:27:29;31.20;;;23.67;;
16478;SDS011;8350;52.316;10.530;2023-04-10T01:30:07;30.15;;;23.05;;
16478;SDS011;8350;52.316;10.530;2023-04-10T01:32:37;29.40;;;23.40;;
16478;SDS011;8350;52.316;10.530;2023-04-10T01:35:06;32.75;;;24.45;;
16478;SDS011;8350;52.316;10.530;2023-04-10T01:37:36;32.05;;;24.17;;
16478;SDS011;8350;52.316;10.530;2023-04-10T01:40:09;31.08;;;23.90;;
16478;SDS011;8350;52.316;10.530;2023-04-10T01:42:41;28.45;;;23.70;;
16478;SDS011;8350;52.316;10.530;2023-04-10T01:45:17;28.60;;;22.30;;
16478;SDS011;8350;52.316;10.530;2023-04-10T01:47:47;31.40;;;24.52;;
16478;SDS011;8350;52.316;10.530;2023-04-10T01:50:15;31.23;;;25.38;;
16478;SDS011;8350;52.316;10.530;2023-04-10T01:52:45;29.08;;;22.83;;
16478;SDS011;8350;52.316;10.530;2023-04-10T01:55:13;30.58;;;23.15;;
16478;SDS011;8350;52.316;10.530;2023-04-10T01:57:41;27.42;;;21.90;;
16478;SDS011;8350;52.316;10.530;2023-04-10T02:00:10;31.05;;;24.02;;
16478;SDS011;8350;52.316;10.530;2023-04-10T02:02:40;30.80;;;24.80;;
16478;SDS011;8350;52.316;10.530;2023-04-10T02:05:07;32.10;;;23.42;;
16478;SDS011;8350;52.316;10.530;2023-04-10T02:07:35;32.15;;;25.15;;
16478;SDS011;8350;52.316;10.530;2023-04-10T02:10:12;32.90;;;25.02;;
16478;SDS011;8350;52.316;10.530;2023-04-10T02:12:44;31.65;;;23.73;;
16478;SDS011;8350;52.316;10.530;2023-04-10T02:15:18;30.42;;;23.35;;
16478;SDS011;8350;52.316;10.530;2023-04-10T02:17:50;30.98;;;24.05;;
16478;SDS011;8350;52.316;10.530;2023-04-10T02:20:18;30.00;;;23.85;;
16478;SDS011;8350;52.316;10.530;2023-04-10T02:22:46;33.13;;;23.92;;
16478;SDS011;8350;52.316;10.530;2023-04-10T02:25:14;34.45;;;25.48;;
16478;SDS011;8350;52.316;10.530;2023-04-10T02:27:41;36.20;;;25.67;;
16478;SDS011;8350;52.316;10.530;2023-04-10T02:30:13;31.17;;;23.33;;
16478;SDS011;8350;52.316;10.530;2023-04-10T02:32:40;29.92;;;23.10;;
16478;SDS011;8350;52.316;10.530;2023-04-10T02:35:09;34.35;;;25.45;;
16478;SDS011;8350;52.316;10.530;2023-04-10T02:37:36;33.30;;;24.85;;
16478;SDS011;8350;52.316;10.530;2023-04-10T02:40:04;34.53;;;24.75;;
16478;SDS011;8350;52.316;10.530;2023-04-10T02:42:34;32.25;;;22.70;;
16478;SDS011;8350;52.316;10.530;2023-04-10T02:45:03;34.08;;;23.50;;
16478;SDS011;8350;52.316;10.530;2023-04-10T02:47:31;30.67;;;21.27;;
16478;SDS011;8350;52.316;10.530;2023-04-10T02:49:58;30.73;;;21.33;;
16478;SDS011;8350;52.316;10.530;2023-04-10T02:52:27;33.80;;;23.35;;
16478;SDS011;8350;52.316;10.530;2023-04-10T02:54:54;32.83;;;22.73;;
16478;SDS011;8350;52.316;10.530;2023-04-10T02:57:21;34.42;;;23.02;;
16478;SDS011;8350;52.316;10.530;2023-04-10T02:59:49;31.92;;;21.67;;
16478;SDS011;8350;52.316;10.530;2023-04-10T03:02:16;30.85;;;20.15;;
16478;SDS011;8350;52.316;10.530;2023-04-10T03:04:46;35.00;;;22.80;;
16478;SDS011;8350;52.316;10.530;2023-04-10T03:07:13;30.58;;;20.77;;
16478;SDS011;8350;52.316;10.530;2023-04-10T03:09:42;30.85;;;21.85;;
16478;SDS011;8350;52.316;10.530;2023-04-10T03:12:09;32.60;;;22.73;;
16478;SDS011;8350;52.316;10.530;2023-04-10T03:14:36;29.30;;;20.88;;
16478;SDS011;8350;52.316;10.530;2023-04-10T03:17:04;36.08;;;22.75;;
16478;SDS011;8350;52.316;10.530;2023-04-10T03:19:31;32.53;;;22.45;;
16478;SDS011;8350;52.316;10.530;2023-04-10T03:21:58;31.45;;;22.95;;
16478;SDS011;8350;52.316;10.530;2023-04-10T03:24:26;34.97;;;22.33;;
16478;SDS011;8350;52.316;10.530;2023-04-10T03:26:54;29.50;;;20.42;;
16478;SDS011;8350;52.316;10.530;2023-04-10T03:29:22;31.88;;;22.17;;
16478;SDS011;8350;52.316;10.530;2023-04-10T03:31:52;35.60;;;23.75;;
16478;SDS011;8350;52.316;10.530;2023-04-10T03:34:19;32.33;;;23.60;;
16478;SDS011;8350;52.316;10.530;2023-04-10T03:36:46;33.90;;;22.60;;
16478;SDS011;8350;52.316;10.530;2023-04-10T03:39:13;28.77;;;21.23;;
16478;SDS011;8350;52.316;10.530;2023-04-10T03:41:40;33.67;;;22.13;;
16478;SDS011;8350;52.316;10.530;2023-04-10T03:44:09;33.42;;;21.55;;
16478;SDS011;8350;52.316;10.530;2023-04-10T03:46:38;31.65;;;21.45;;
16478;SDS011;8350;52.316;10.530;2023-04-10T03:49:05;32.65;;;22.55;;
16478;SDS011;8350;52.316;10.530;2023-04-10T03:51:35;32.50;;;21.52;;
16478;SDS011;8350;52.316;10.530;2023-04-10T03:54:03;32.88;;;21.88;;
16478;SDS011;8350;52.316;10.530;2023-04-10T03:56:29;31.48;;;23.33;;
16478;SDS011;8350;52.316;10.530;2023-04-10T03:58:56;34.60;;;23.10;;
16478;SDS011;8350;52.316;10.530;2023-04-10T04:01:25;33.15;;;21.95;;
16478;SDS011;8350;52.316;10.530;2023-04-10T04:03:52;34.08;;;22.45;;
16478;SDS011;8350;52.316;10.530;2023-04-10T04:06:19;30.70;;;22.02;;
16478;SDS011;8350;52.316;10.530;2023-04-10T04:08:46;30.80;;;21.98;;
16478;SDS011;8350;52.316;10.530;2023-04-10T04:11:13;31.08;;;20.77;;
16478;SDS011;8350;52.316;10.530;2023-04-10T04:13:40;31.83;;;22.38;;
16478;SDS011;8350;52.316;10.530;2023-04-10T04:16:08;32.65;;;21.77;;
16478;SDS011;8350;52.316;10.530;2023-04-10T04:18:37;36.03;;;23.42;;
16478;SDS011;8350;52.316;10.530;2023-04-10T04:21:05;35.45;;;21.95;;
16478;SDS011;8350;52.316;10.530;2023-04-10T04:23:32;30.55;;;21.02;;
16478;SDS011;8350;52.316;10.530;2023-04-10T04:25:59;33.08;;;22.33;;
16478;SDS011;8350;52.316;10.530;2023-04-10T04:28:26;31.67;;;22.65;;
16478;SDS011;8350;52.316;10.530;2023-04-10T04:30:53;30.73;;;20.98;;
16478;SDS011;8350;52.316;10.530;2023-04-10T04:33:27;33.63;;;19.83;;
16478;SDS011;8350;52.316;10.530;2023-04-10T04:35:56;30.17;;;20.05;;
16478;SDS011;8350;52.316;10.530;2023-04-10T04:38:23;33.63;;;21.63;;
16478;SDS011;8350;52.316;10.530;2023-04-10T04:40:49;30.23;;;19.60;;
16478;SDS011;8350;52.316;10.530;2023-04-10T04:43:16;30.88;;;19.45;;
16478;SDS011;8350;52.316;10.530;2023-04-10T04:45:43;31.90;;;20.65;;
16478;SDS011;8350;52.316;10.530;2023-04-10T04:48:10;32.15;;;20.98;;
16478;SDS011;8350;52.316;10.530;2023-04-10T04:50:38;31.13;;;20.83;;
16478;SDS011;8350;52.316;10.530;2023-04-10T04:53:07;33.28;;;21.75;;
16478;SDS011;8350;52.316;10.530;2023-04-10T04:55:35;33.53;;;20.75;;
16478;SDS011;8350;52.316;10.530;2023-04-10T04:58:02;32.53;;;22.27;;
16478;SDS011;8350;52.316;10.530;2023-04-10T05:00:29;32.95;;;22.27;;
16478;SDS011;8350;52.316;10.530;2023-04-10T05:02:56;35.83;;;22.38;;
16478;SDS011;8350;52.316;10.530;2023-04-10T05:05:23;35.75;;;23.95;;
16478;SDS011;8350;52.316;10.530;2023-04-10T05:07:51;32.17;;;23.17;;
16478;SDS011;8350;52.316;10.530;2023-04-10T05:10:20;32.50;;;24.35;;
16478;SDS011;8350;52.316;10.530;2023-04-10T05:12:47;30.98;;;22.58;;
16478;SDS011;8350;52.316;10.530;2023-04-10T05:15:16;31.33;;;23.08;;
16478;SDS011;8350;52.316;10.530;2023-04-10T05:17:43;31.98;;;23.60;;
16478;SDS011;8350;52.316;10.530;2023-04-10T05:20:10;30.05;;;22.58;;
16478;SDS011;8350;52.316;10.530;2023-04-10T05:22:37;25.23;;;21.52;;
16478;SDS011;8350;52.316;10.530;2023-04-10T05:25:07;23.60;;;19.55;;
16478;SDS011;8350;52.316;10.530;2023-04-10T05:27:35;24.10;;;19.02;;
16478;SDS011;8350;52.316;10.530;2023-04-10T05:30:03;25.48;;;20.10;;
16478;SDS011;8350;52.316;10.530;2023-04-10T05:32:31;20.52;;;18.35;;
16478;SDS011;8350;52.316;10.530;2023-04-10T05:35:02;21.20;;;18.55;;
16478;SDS011;8350;52.316;10.530;2023-04-10T05:37:29;21.27;;;18.77;;
16478;SDS011;8350;52.316;10.530;2023-04-10T05:39:57;20.70;;;18.50;;
16478;SDS011;8350;52.316;10.530;2023-04-10T05:42:24;20.75;;;17.23;;
16478;SDS011;8350;52.316;10.530;2023-04-10T05:44:52;19.83;;;17.73;;
16478;SDS011;8350;52.316;10.530;2023-04-10T05:47:22;20.67;;;18.55;;
16478;SDS011;8350;52.316;10.530;2023-04-10T05:49:49;19.98;;;17.90;;
16478;SDS011;8350;52.316;10.530;2023-04-10T05:52:16;19.38;;;17.38;;
16478;SDS011;8350;52.316;10.530;2023-04-10T05:54:43;20.60;;;17.23;;
16478;SDS011;8350;52.316;10.530;2023-04-10T05:57:11;19.55;;;17.33;;
16478;SDS011;8350;52.316;10.530;2023-04-10T05:59:37;21.10;;;18.27;;
16478;SDS011;8350;52.316;10.530;2023-04-10T06:02:07;18.80;;;16.90;;
16478;SDS011;8350;52.316;10.530;2023-04-10T06:04:35;20.42;;;17.98;;
16478;SDS011;8350;52.316;10.530;2023-04-10T06:07:02;18.63;;;16.63;;
16478;SDS011;8350;52.316;10.530;2023-04-10T06:09:29;20.08;;;17.95;;
16478;SDS011;8350;52.316;10.530;2023-04-10T06:11:56;19.20;;;16.60;;
16478;SDS011;8350;52.316;10.530;2023-04-10T06:14:25;19.45;;;17.35;;
16478;SDS011;8350;52.316;10.530;2023-04-10T06:16:54;18.90;;;17.00;;
16478;SDS011;8350;52.316;10.530;2023-04-10T06:19:23;17.67;;;15.82;;
16478;SDS011;8350;52.316;10.530;2023-04-10T06:21:51;17.60;;;15.68;;
16478;SDS011;8350;52.316;10.530;2023-04-10T06:24:17;18.65;;;16.20;;
16478;SDS011;8350;52.316;10.530;2023-04-10T06:26:45;17.55;;;15.85;;
16478;SDS011;8350;52.316;10.530;2023-04-10T06:29:12;17.65;;;15.95;;
16478;SDS011;8350;52.316;10.530;2023-04-10T06:31:41;17.20;;;15.32;;
16478;SDS011;8350;52.316;10.530;2023-04-10T06:34:09;16.85;;;15.15;;
16478;SDS011;8350;52.316;10.530;2023-04-10T06:36:37;16.63;;;14.93;;
16478;SDS011;8350;52.316;10.530;2023-04-10T06:39:04;16.90;;;15.02;;
16478;SDS011;8350;52.316;10.530;2023-04-10T06:41:31;15.43;;;13.85;;
16478;SDS011;8350;52.316;10.530;2023-04-10T06:43:58;16.50;;;14.55;;
16478;SDS011;8350;52.316;10.530;2023-04-10T06:46:26;15.07;;;13.57;;
16478;SDS011;8350;52.316;10.530;2023-04-10T06:48:53;15.95;;;14.40;;
16478;SDS011;8350;52.316;10.530;2023-04-10T06:51:20;15.48;;;13.80;;
16478;SDS011;8350;52.316;10.530;2023-04-10T06:53:48;15.80;;;14.20;;
16478;SDS011;8350;52.316;10.530;2023-04-10T06:56:15;17.33;;;14.90;;
16478;SDS011;8350;52.316;10.530;2023-04-10T06:58:42;15.23;;;13.73;;
16478;SDS011;8350;52.316;10.530;2023-04-10T07:01:13;15.55;;;13.95;;
16478;SDS011;8350;52.316;10.530;2023-04-10T07:03:41;14.95;;;13.48;;
16478;SDS011;8350;52.316;10.530;2023-04-10T07:06:09;15.95;;;13.48;;
16478;SDS011;8350;52.316;10.530;2023-04-10T07:08:36;15.20;;;13.55;;
16478;SDS011;8350;52.316;10.530;2023-04-10T07:11:05;15.00;;;13.40;;
16478;SDS011;8350;52.316;10.530;2023-04-10T07:13:32;14.05;;;12.65;;
16478;SDS011;8350;52.316;10.530;2023-04-10T07:16:02;13.93;;;12.55;;
16478;SDS011;8350;52.316;10.530;2023-04-10T07:18:33;15.45;;;13.88;;
16478;SDS011;8350;52.316;10.530;2023-04-10T07:21:07;16.02;;;14.00;;
16478;SDS011;8350;52.316;10.530;2023-04-10T07:23:36;16.23;;;13.27;;
16478;SDS011;8350;52.316;10.530;2023-04-10T07:26:04;14.32;;;12.93;;
16478;SDS011;8350;52.316;10.530;2023-04-10T07:28:31;14.68;;;13.18;;
16478;SDS011;8350;52.316;10.530;2023-04-10T07:30:58;15.27;;;13.68;;
16478;SDS011;8350;52.316;10.530;2023-04-10T07:33:26;14.55;;;13.15;;
16478;SDS011;8350;52.316;10.530;2023-04-10T07:35:53;15.00;;;13.40;;
16478;SDS011;8350;52.316;10.530;2023-04-10T07:38:20;14.50;;;13.13;;
16478;SDS011;8350;52.316;10.530;2023-04-10T07:40:57;17.00;;;15.27;;
16478;SDS011;8350;52.316;10.530;2023-04-10T07:43:26;15.23;;;13.73;;
16478;SDS011;8350;52.316;10.530;2023-04-10T07:45:54;14.38;;;13.00;;
16478;SDS011;8350;52.316;10.530;2023-04-10T07:48:22;14.23;;;12.77;;
16478;SDS011;8350;52.316;10.530;2023-04-10T07:50:49;15.82;;;14.00;;
16478;SDS011;8350;52.316;10.530;2023-04-10T07:53:21;15.98;;;14.10;;
16478;SDS011;8350;52.316;10.530;2023-04-10T07:55:48;15.77;;;14.18;;
16478;SDS011;8350;52.316;10.530;2023-04-10T07:58:15;15.23;;;13.80;;
16478;SDS011;8350;52.316;10.530;2023-04-10T08:00:43;14.50;;;13.05;;
16478;SDS011;8350;52.316;10.530;2023-04-10T08:03:10;13.75;;;12.35;;
16478;SDS011;8350;52.316;10.530;2023-04-10T08:05:37;13.18;;;11.82;;
16478;SDS011;8350;52.316;10.530;2023-04-10T08:08:05;14.57;;;13.02;;
16478;SDS011;8350;52.316;10.530;2023-04-10T08:10:32;14.52;;;13.13;;
16478;SDS011;8350;52.316;10.530;2023-04-10T08:13:01;13.98;;;12.57;;
16478;SDS011;8350;52.316;10.530;2023-04-10T08:15:31;13.52;;;12.20;;
16478;SDS011;8350;52.316;10.530;2023-04-10T08:17:59;14.13;;;12.75;;
16478;SDS011;8350;52.316;10.530;2023-04-10T08:20:26;14.25;;;12.57;;
16478;SDS011;8350;52.316;10.530;2023-04-10T08:22:54;13.85;;;12.55;;
16478;SDS011;8350;52.316;10.530;2023-04-10T08:25:21;12.55;;;11.25;;
16478;SDS011;8350;52.316;10.530;2023-04-10T08:27:48;11.85;;;10.65;;
16478;SDS011;8350;52.316;10.530;2023-04-10T08:30:17;12.18;;;11.02;;
16478;SDS011;8350;52.316;10.530;2023-04-10T08:32:44;12.20;;;11.00;;
16478;SDS011;8350;52.316;10.530;2023-04-10T08:35:12;11.80;;;10.60;;
16478;SDS011;8350;52.316;10.530;2023-04-10T08:37:39;11.50;;;10.40;;
16478;SDS011;8350;52.316;10.530;2023-04-10T08:40:09;12.45;;;11.25;;
16478;SDS011;8350;52.316;10.530;2023-04-10T08:42:36;12.05;;;10.90;;
16478;SDS011;8350;52.316;10.530;2023-04-10T08:45:04;12.68;;;10.65;;
16478;SDS011;8350;52.316;10.530;2023-04-10T08:47:32;11.82;;;10.73;;
16478;SDS011;8350;52.316;10.530;2023-04-10T08:50:04;11.32;;;10.32;;
16478;SDS011;8350;52.316;10.530;2023-04-10T08:52:34;11.80;;;10.60;;
16478;SDS011;8350;52.316;10.530;2023-04-10T08:55:08;12.32;;;11.23;;
16478;SDS011;8350;52.316;10.530;2023-04-10T08:57:39;11.77;;;10.63;;
16478;SDS011;8350;52.316;10.530;2023-04-10T09:00:08;12.20;;;11.07;;
16478;SDS011;8350;52.316;10.530;2023-04-10T09:02:37;11.98;;;10.77;;
16478;SDS011;8350;52.316;10.530;2023-04-10T09:05:06;11.85;;;10.75;;
16478;SDS011;8350;52.316;10.530;2023-04-10T09:07:38;12.85;;;11.65;;
16478;SDS011;8350;52.316;10.530;2023-04-10T09:10:05;12.48;;;11.27;;
16478;SDS011;8350;52.316;10.530;2023-04-10T09:12:44;13.00;;;11.70;;
16478;SDS011;8350;52.316;10.530;2023-04-10T09:15:14;12.18;;;11.07;;
16478;SDS011;8350;52.316;10.530;2023-04-10T09:17:55;11.48;;;10.38;;
16478;SDS011;8350;52.316;10.530;2023-04-10T09:20:24;12.05;;;10.95;;
16478;SDS011;8350;52.316;10.530;2023-04-10T09:22:53;13.50;;;11.93;;
16478;SDS011;8350;52.316;10.530;2023-04-10T09:25:28;13.18;;;11.90;;
16478;SDS011;8350;52.316;10.530;2023-04-10T09:28:00;12.93;;;11.63;;
16478;SDS011;8350;52.316;10.530;2023-04-10T09:30:37;13.07;;;11.63;;
16478;SDS011;8350;52.316;10.530;2023-04-10T09:33:21;11.93;;;10.77;;
16478;SDS011;8350;52.316;10.530;2023-04-10T09:35:51;11.65;;;10.65;;
16478;SDS011;8350;52.316;10.530;2023-04-10T09:38:21;12.93;;;11.57;;
16478;SDS011;8350;52.316;10.530;2023-04-10T09:40:49;12.02;;;10.93;;
16478;SDS011;8350;52.316;10.530;2023-04-10T09:43:22;11.88;;;10.82;;
16478;SDS011;8350;52.316;10.530;2023-04-10T09:45:56;12.48;;;11.32;;
16478;SDS011;8350;52.316;10.530;2023-04-10T09:48:26;12.07;;;10.88;;
16478;SDS011;8350;52.316;10.530;2023-04-10T09:50:59;12.60;;;11.50;;
16478;SDS011;8350;52.316;10.530;2023-04-10T09:53:31;9.55;;;8.75;;
16478;SDS011;8350;52.316;10.530;2023-04-10T09:56:14;11.50;;;10.43;;
16478;SDS011;8350;52.316;10.530;2023-04-10T09:58:50;11.05;;;10.02;;
16478;SDS011;8350;52.316;10.530;2023-04-10T10:01:21;12.55;;;10.88;;
16478;SDS011;8350;52.316;10.530;2023-04-10T10:03:50;13.00;;;11.75;;
16478;SDS011;8350;52.316;10.530;2023-04-10T10:06:21;13.23;;;12.02;;
16478;SDS011;8350;52.316;10.530;2023-04-10T10:08:49;11.48;;;10.40;;
16478;SDS011;8350;52.316;10.530;2023-04-10T10:11:29;11.90;;;10.77;;
16478;SDS011;8350;52.316;10.530;2023-04-10T10:14:16;10.75;;;9.75;;
16478;SDS011;8350;52.316;10.530;2023-04-10T10:16:48;11.10;;;10.10;;
16478;SDS011;8350;52.316;10.530;2023-04-10T10:19:23;11.98;;;10.90;;
16478;SDS011;8350;52.316;10.530;2023-04-10T10:21:59;13.05;;;11.85;;
16478;SDS011;8350;52.316;10.530;2023-04-10T10:24:29;12.90;;;11.80;;
16478;SDS011;8350;52.316;10.530;2023-04-10T10:27:02;11.18;;;10.25;;
16478;SDS011;8350;52.316;10.530;2023-04-10T10:29:38;11.77;;;10.77;;
16478;SDS011;8350;52.316;10.530;2023-04-10T10:32:09;11.68;;;10.57;;
16478;SDS011;8350;52.316;10.530;2023-04-10T10:34:41;11.68;;;10.68;;
16478;SDS011;8350;52.316;10.530;2023-04-10T10:37:10;12.52;;;11.43;;
16478;SDS011;8350;52.316;10.530;2023-04-10T10:39:43;12.65;;;11.45;;
16478;SDS011;8350;52.316;10.530;2023-04-10T10:42:25;12.32;;;11.13;;
16478;SDS011;8350;52.316;10.530;2023-04-10T10:45:05;13.82;;;12.20;;
16478;SDS011;8350;52.316;10.530;2023-04-10T10:47:44;12.98;;;11.68;;
16478;SDS011;8350;52.316;10.530;2023-04-10T10:50:14;11.38;;;10.27;;
16478;SDS011;8350;52.316;10.530;2023-04-10T10:52:42;11.95;;;10.85;;
16478;SDS011;8350;52.316;10.530;2023-04-10T10:58:06;9.80;;;9.00;;
16478;SDS011;8350;52.316;10.530;2023-04-10T11:03:41;11.82;;;10.73;;
16478;SDS011;8350;52.316;10.530;2023-04-10T11:06:10;15.15;;;11.30;;
16478;SDS011;8350;52.316;10.530;2023-04-10T11:08:41;11.38;;;10.10;;
16478;SDS011;8350;52.316;10.530;2023-04-10T11:11:25;11.07;;;10.02;;
16478;SDS011;8350;52.316;10.530;2023-04-10T11:16:43;12.77;;;11.55;;
16478;SDS011;8350;52.316;10.530;2023-04-10T11:19:13;12.82;;;11.57;;
16478;SDS011;8350;52.316;10.530;2023-04-10T11:24:28;9.60;;;8.63;;
16478;SDS011;8350;52.316;10.530;2023-04-10T11:30:30;9.45;;;8.63;;
16478;SDS011;8350;52.316;10.530;2023-04-10T11:32:59;11.02;;;9.88;;
16478;SDS011;8350;52.316;10.530;2023-04-10T11:35:27;9.93;;;9.02;;
16478;SDS011;8350;52.316;10.530;2023-04-10T11:38:10;10.18;;;9.27;;
16478;SDS011;8350;52.316;10.530;2023-04-10T11:40:57;9.38;;;8.48;;
16478;SDS011;8350;52.316;10.530;2023-04-10T11:43:29;7.85;;;7.20;;
16478;SDS011;8350;52.316;10.530;2023-04-10T11:45:58;8.40;;;7.60;;
16478;SDS011;8350;52.316;10.530;2023-04-10T11:48:29;6.78;;;6.18;;
16478;SDS011;8350;52.316;10.530;2023-04-10T11:50:56;5.90;;;5.40;;
16478;SDS011;8350;52.316;10.530;2023-04-10T11:53:26;5.95;;;5.45;;
16478;SDS011;8350;52.316;10.530;2023-04-10T11:55:54;5.32;;;4.93;;
16478;SDS011;8350;52.316;10.530;2023-04-10T11:58:22;6.15;;;5.03;;
16478;SDS011;8350;52.316;10.530;2023-04-10T12:00:58;5.05;;;4.65;;
16478;SDS011;8350;52.316;10.530;2023-04-10T12:03:32;4.38;;;4.07;;
16478;SDS011;8350;52.316;10.530;2023-04-10T12:06:03;5.07;;;4.57;;
16478;SDS011;8350;52.316;10.530;2023-04-10T12:08:32;5.22;;;4.47;;
16478;SDS011;8350;52.316;10.530;2023-04-10T12:11:04;4.35;;;3.95;;
16478;SDS011;8350;52.316;10.530;2023-04-10T12:13:34;4.78;;;4.38;;
16478;SDS011;8350;52.316;10.530;2023-04-10T12:16:05;5.65;;;4.75;;
16478;SDS011;8350;52.316;10.530;2023-04-10T12:18:37;4.97;;;4.57;;
16478;SDS011;8350;52.316;10.530;2023-04-10T12:21:06;4.63;;;4.18;;
16478;SDS011;8350;52.316;10.530;2023-04-10T12:23:37;5.05;;;4.65;;
16478;SDS011;8350;52.316;10.530;2023-04-10T12:26:05;6.53;;;4.65;;
16478;SDS011;8350;52.316;10.530;2023-04-10T12:28:37;5.18;;;4.63;;
16478;SDS011;8350;52.316;10.530;2023-04-10T12:31:07;4.68;;;4.13;;
16478;SDS011;8350;52.316;10.530;2023-04-10T12:33:35;4.32;;;3.92;;
16478;SDS011;8350;52.316;10.530;2023-04-10T12:36:04;4.20;;;3.90;;
16478;SDS011;8350;52.316;10.530;2023-04-10T12:38:47;4.60;;;4.20;;
16478;SDS011;8350;52.316;10.530;2023-04-10T12:41:19;5.38;;;4.38;;
16478;SDS011;8350;52.316;10.530;2023-04-10T12:44:05;4.45;;;4.05;;
16478;SDS011;8350;52.316;10.530;2023-04-10T12:46:35;4.90;;;4.47;;
16478;SDS011;8350;52.316;10.530;2023-04-10T12:49:09;4.78;;;4.35;;
16478;SDS011;8350;52.316;10.530;2023-04-10T12:51:43;4.05;;;3.65;;
16478;SDS011;8350;52.316;10.530;2023-04-10T12:54:25;4.70;;;4.30;;
16478;SDS011;8350;52.316;10.530;2023-04-10T12:56:54;4.43;;;4.00;;
16478;SDS011;8350;52.316;10.530;2023-04-10T12:59:21;4.95;;;3.80;;
16478;SDS011;8350;52.316;10.530;2023-04-10T13:01:53;4.38;;;3.92;;
16478;SDS011;8350;52.316;10.530;2023-04-10T13:04:24;13.77;;;12.63;;
16478;SDS011;8350;52.316;10.530;2023-04-10T13:06:58;3.45;;;3.13;;
16478;SDS011;8350;52.316;10.530;2023-04-10T13:09:26;3.60;;;3.30;;
16478;SDS011;8350;52.316;10.530;2023-04-10T13:11:53;3.95;;;3.33;;
16478;SDS011;8350;52.316;10.530;2023-04-10T13:14:22;5.03;;;3.25;;
16478;SDS011;8350;52.316;10.530;2023-04-10T13:16:50;4.05;;;3.63;;
16478;SDS011;8350;52.316;10.530;2023-04-10T13:19:18;4.18;;;3.60;;
16478;SDS011;8350;52.316;10.530;2023-04-10T13:21:50;3.45;;;3.15;;
16478;SDS011;8350;52.316;10.530;2023-04-10T13:24:17;3.65;;;3.35;;
16478;SDS011;8350;52.316;10.530;2023-04-10T13:26:46;4.10;;;3.67;;
16478;SDS011;8350;52.316;10.530;2023-04-10T13:29:13;4.13;;;2.80;;
16478;SDS011;8350;52.316;10.530;2023-04-10T13:31:43;3.40;;;3.10;;
16478;SDS011;8350;52.316;10.530;2023-04-10T13:34:20;3.70;;;3.40;;
16478;SDS011;8350;52.316;10.530;2023-04-10T13:36:47;3.53;;;3.22;;
16478;SDS011;8350;52.316;10.530;2023-04-10T13:39:14;3.85;;;3.33;;
16478;SDS011;8350;52.316;10.530;2023-04-10T13:41:42;4.13;;;3.80;;
16478;SDS011;8350;52.316;10.530;2023-04-10T13:44:09;4.50;;;3.63;;
16478;SDS011;8350;52.316;10.530;2023-04-10T13:46:36;4.50;;;3.63;;
16478;SDS011;8350;52.316;10.530;2023-04-10T13:49:05;5.78;;;3.63;;
16478;SDS011;8350;52.316;10.530;2023-04-10T13:51:33;4.20;;;3.83;;
16478;SDS011;8350;52.316;10.530;2023-04-10T13:54:00;4.63;;;4.22;;
16478;SDS011;8350;52.316;10.530;2023-04-10T13:56:28;4.45;;;4.10;;
16478;SDS011;8350;52.316;10.530;2023-04-10T13:58:55;4.45;;;3.97;;
16478;SDS011;8350;52.316;10.530;2023-04-10T14:01:22;4.95;;;4.43;;
16478;SDS011;8350;52.316;10.530;2023-04-10T14:03:49;4.57;;;4.18;;
16478;SDS011;8350;52.316;10.530;2023-04-10T14:06:20;5.15;;;4.55;;
16478;SDS011;8350;52.316;10.530;2023-04-10T14:08:48;5.35;;;4.82;;
16478;SDS011;8350;52.316;10.530;2023-04-10T14:11:15;4.95;;;4.55;;
16478;SDS011;8350;52.316;10.530;2023-04-10T14:13:45;4.22;;;3.85;;
16478;SDS011;8350;52.316;10.530;2023-04-10T14:16:12;4.85;;;4.45;;
16478;SDS011;8350;52.316;10.530;2023-04-10T14:18:39;4.72;;;4.32;;
16478;SDS011;8350;52.316;10.530;2023-04-10T14:21:06;4.03;;;3.72;;
16478;SDS011;8350;52.316;10.530;2023-04-10T14:23:33;4.88;;;3.80;;
16478;SDS011;8350;52.316;10.530;2023-04-10T14:26:02;3.60;;;3.30;;
16478;SDS011;8350;52.316;10.530;2023-04-10T14:28:36;3.63;;;3.33;;
16478;SDS011;8350;52.316;10.530;2023-04-10T14:31:03;3.60;;;3.30;;
16478;SDS011;8350;52.316;10.530;2023-04-10T14:33:30;4.70;;;4.30;;
16478;SDS011;8350;52.316;10.530;2023-04-10T14:35:57;5.47;;;4.97;;
16478;SDS011;8350;52.316;10.530;2023-04-10T14:38:25;3.95;;;3.55;;
16478;SDS011;8350;52.316;10.530;2023-04-10T14:40:51;3.60;;;3.30;;
16478;SDS011;8350;52.316;10.530;2023-04-10T14:43:20;4.50;;;4.10;;
16478;SDS011;8350;52.316;10.530;2023-04-10T14:45:47;5.60;;;3.17;;
16478;SDS011;8350;52.316;10.530;2023-04-10T14:48:16;3.53;;;3.25;;
16478;SDS011;8350;52.316;10.530;2023-04-10T14:50:43;3.90;;;3.60;;
16478;SDS011;8350;52.316;10.530;2023-04-10T14:53:10;3.67;;;3.38;;
16478;SDS011;8350;52.316;10.530;2023-04-10T14:55:37;3.55;;;3.25;;
16478;SDS011;8350;52.316;10.530;2023-04-10T14:58:04;2.97;;;2.78;;